sensor_id;sensor_type;location;lat;lon;timestamp;temperature;humidity
67722;SHT31;58309;45.292;11.820;2023-11-21T00:01:43;8.51;90.71
67722;SHT31;58309;45.292;11.820;2023-11-21T00:04:09;8.51;91.23
67722;SHT31;58309;45.292;11.820;2023-11-21T00:06:34;8.45;91.47
67722;SHT31;58309;45.292;11.820;2023-11-21T00:08:59;8.42;90.96
67722;SHT31;58309;45.292;11.820;2023-11-21T00:11:25;8.44;90.95
67722;SHT31;58309;45.292;11.820;2023-11-21T00:13:51;8.39;90.91
67722;SHT31;58309;45.292;11.820;2023-11-21T00:16:16;8.41;90.70
67722;SHT31;58309;45.292;11.820;2023-11-21T00:18:41;8.39;91.03
67722;SHT31;58309;45.292;11.820;2023-11-21T00:21:08;8.37;91.68
67722;SHT31;58309;45.292;11.820;2023-11-21T00:23:34;8.32;91.81
67722;SHT31;58309;45.292;11.820;2023-11-21T00:25:59;8.24;92.18
67722;SHT31;58309;45.292;11.820;2023-11-21T00:28:24;8.20;92.22
67722;SHT31;58309;45.292;11.820;2023-11-21T00:30:50;8.18;92.29
67722;SHT31;58309;45.292;11.820;2023-11-21T00:33:15;8.18;92.40
67722;SHT31;58309;45.292;11.820;2023-11-21T00:35:40;8.17;92.26
67722;SHT31;58309;45.292;11.820;2023-11-21T00:38:06;8.12;92.71
67722;SHT31;58309;45.292;11.820;2023-11-21T00:40:33;8.11;92.68
67722;SHT31;58309;45.292;11.820;2023-11-21T00:42:58;8.08;92.78
67722;SHT31;58309;45.292;11.820;2023-11-21T00:45:24;8.04;92.96
67722;SHT31;58309;45.292;11.820;2023-11-21T00:47:49;8.05;92.92
67722;SHT31;58309;45.292;11.820;2023-11-21T00:50:15;8.02;93.11
67722;SHT31;58309;45.292;11.820;2023-11-21T00:52:40;8.02;93.01
67722;SHT31;58309;45.292;11.820;2023-11-21T00:55:06;8.00;93.11
67722;SHT31;58309;45.292;11.820;2023-11-21T00:57:32;8.00;93.09
67722;SHT31;58309;45.292;11.820;2023-11-21T00:59:58;7.98;93.00
67722;SHT31;58309;45.292;11.820;2023-11-21T01:02:23;7.97;92.97
67722;SHT31;58309;45.292;11.820;2023-11-21T01:04:48;7.95;92.91
67722;SHT31;58309;45.292;11.820;2023-11-21T01:07:14;7.97;92.74
67722;SHT31;58309;45.292;11.820;2023-11-21T01:09:39;7.97;92.84
67722;SHT31;58309;45.292;11.820;2023-11-21T01:12:04;7.95;93.02
67722;SHT31;58309;45.292;11.820;2023-11-21T01:14:30;7.94;92.90
67722;SHT31;58309;45.292;11.820;2023-11-21T01:16:55;7.97;92.88
67722;SHT31;58309;45.292;11.820;2023-11-21T01:19:20;7.94;92.94
67722;SHT31;58309;45.292;11.820;2023-11-21T01:21:46;7.97;93.19
67722;SHT31;58309;45.292;11.820;2023-11-21T01:24:12;7.94;93.45
67722;SHT31;58309;45.292;11.820;2023-11-21T01:26:37;7.94;93.44
67722;SHT31;58309;45.292;11.820;2023-11-21T01:29:02;7.93;93.77
67722;SHT31;58309;45.292;11.820;2023-11-21T01:31:28;8.00;93.07
67722;SHT31;58309;45.292;11.820;2023-11-21T01:33:55;8.04;92.21
67722;SHT31;58309;45.292;11.820;2023-11-21T01:36:20;8.12;92.12
67722;SHT31;58309;45.292;11.820;2023-11-21T01:38:46;8.22;91.26
67722;SHT31;58309;45.292;11.820;2023-11-21T01:41:13;8.24;91.10
67722;SHT31;58309;45.292;11.820;2023-11-21T01:43:38;8.22;91.31
67722;SHT31;58309;45.292;11.820;2023-11-21T01:46:04;8.17;91.15
67722;SHT31;58309;45.292;11.820;2023-11-21T01:48:31;8.18;92.05
67722;SHT31;58309;45.292;11.820;2023-11-21T01:50:56;8.14;91.46
67722;SHT31;58309;45.292;11.820;2023-11-21T01:53:23;8.12;91.23
67722;SHT31;58309;45.292;11.820;2023-11-21T01:55:49;8.12;91.28
67722;SHT31;58309;45.292;11.820;2023-11-21T01:58:14;8.12;91.38
67722;SHT31;58309;45.292;11.820;2023-11-21T02:00:41;8.17;91.23
67722;SHT31;58309;45.292;11.820;2023-11-21T02:03:06;8.17;91.12
67722;SHT31;58309;45.292;11.820;2023-11-21T02:05:32;8.17;90.96
67722;SHT31;58309;45.292;11.820;2023-11-21T02:07:57;8.15;91.34
67722;SHT31;58309;45.292;11.820;2023-11-21T02:10:22;8.14;91.35
67722;SHT31;58309;45.292;11.820;2023-11-21T02:12:48;8.10;91.39
67722;SHT31;58309;45.292;11.820;2023-11-21T02:15:15;8.07;91.35
67722;SHT31;58309;45.292;11.820;2023-11-21T02:17:45;8.07;91.74
67722;SHT31;58309;45.292;11.820;2023-11-21T02:20:11;8.10;91.67
67722;SHT31;58309;45.292;11.820;2023-11-21T02:22:40;8.08;91.40
67722;SHT31;58309;45.292;11.820;2023-11-21T02:25:07;8.14;91.29
67722;SHT31;58309;45.292;11.820;2023-11-21T02:27:32;8.17;91.68
67722;SHT31;58309;45.292;11.820;2023-11-21T02:29:58;8.20;91.42
67722;SHT31;58309;45.292;11.820;2023-11-21T02:32:24;8.30;91.36
67722;SHT31;58309;45.292;11.820;2023-11-21T02:34:51;8.39;90.79
67722;SHT31;58309;45.292;11.820;2023-11-21T02:37:16;8.44;90.83
67722;SHT31;58309;45.292;11.820;2023-11-21T02:39:41;8.52;90.48
67722;SHT31;58309;45.292;11.820;2023-11-21T02:42:07;8.53;90.72
67722;SHT31;58309;45.292;11.820;2023-11-21T02:44:32;8.62;90.64
67722;SHT31;58309;45.292;11.820;2023-11-21T02:46:57;8.63;90.67
67722;SHT31;58309;45.292;11.820;2023-11-21T02:49:23;8.69;90.45
67722;SHT31;58309;45.292;11.820;2023-11-21T02:51:48;8.68;90.16
67722;SHT31;58309;45.292;11.820;2023-11-21T02:54:13;8.69;89.98
67722;SHT31;58309;45.292;11.820;2023-11-21T02:56:39;8.73;90.13
67722;SHT31;58309;45.292;11.820;2023-11-21T02:59:05;8.73;89.92
67722;SHT31;58309;45.292;11.820;2023-11-21T03:01:30;8.75;89.75
67722;SHT31;58309;45.292;11.820;2023-11-21T03:03:56;8.73;89.77
67722;SHT31;58309;45.292;11.820;2023-11-21T03:06:21;8.77;89.67
67722;SHT31;58309;45.292;11.820;2023-11-21T03:08:47;8.75;89.84
67722;SHT31;58309;45.292;11.820;2023-11-21T03:11:13;8.75;90.19
67722;SHT31;58309;45.292;11.820;2023-11-21T03:13:39;8.75;90.07
67722;SHT31;58309;45.292;11.820;2023-11-21T03:16:06;8.73;90.27
67722;SHT31;58309;45.292;11.820;2023-11-21T03:18:31;8.70;90.33
67722;SHT31;58309;45.292;11.820;2023-11-21T03:20:57;8.66;90.36
67722;SHT31;58309;45.292;11.820;2023-11-21T03:23:22;8.61;90.29
67722;SHT31;58309;45.292;11.820;2023-11-21T03:25:47;8.55;90.49
67722;SHT31;58309;45.292;11.820;2023-11-21T03:28:13;8.48;90.84
67722;SHT31;58309;45.292;11.820;2023-11-21T03:30:38;8.42;91.18
67722;SHT31;58309;45.292;11.820;2023-11-21T03:33:03;8.37;91.45
67722;SHT31;58309;45.292;11.820;2023-11-21T03:35:28;8.31;91.86
67722;SHT31;58309;45.292;11.820;2023-11-21T03:37:54;8.25;92.10
67722;SHT31;58309;45.292;11.820;2023-11-21T03:40:19;8.18;92.15
67722;SHT31;58309;45.292;11.820;2023-11-21T03:42:46;8.12;92.38
67722;SHT31;58309;45.292;11.820;2023-11-21T03:45:11;8.07;92.71
67722;SHT31;58309;45.292;11.820;2023-11-21T03:47:37;8.01;93.01
67722;SHT31;58309;45.292;11.820;2023-11-21T03:50:02;7.94;93.40
67722;SHT31;58309;45.292;11.820;2023-11-21T03:52:28;7.90;93.56
67722;SHT31;58309;45.292;11.820;2023-11-21T03:54:53;7.89;94.00
67722;SHT31;58309;45.292;11.820;2023-11-21T03:57:21;7.81;94.16
67722;SHT31;58309;45.292;11.820;2023-11-21T03:59:46;7.83;94.16
67722;SHT31;58309;45.292;11.820;2023-11-21T04:02:12;7.83;94.25
67722;SHT31;58309;45.292;11.820;2023-11-21T04:04:37;7.84;94.34
67722;SHT31;58309;45.292;11.820;2023-11-21T04:07:02;7.86;94.40
67722;SHT31;58309;45.292;11.820;2023-11-21T04:09:28;7.84;94.49
67722;SHT31;58309;45.292;11.820;2023-11-21T04:11:53;7.80;95.20
67722;SHT31;58309;45.292;11.820;2023-11-21T04:14:19;7.87;94.90
67722;SHT31;58309;45.292;11.820;2023-11-21T04:16:44;7.83;94.95
67722;SHT31;58309;45.292;11.820;2023-11-21T04:19:09;7.80;94.83
67722;SHT31;58309;45.292;11.820;2023-11-21T04:21:44;7.73;94.77
67722;SHT31;58309;45.292;11.820;2023-11-21T04:24:09;7.66;94.87
67722;SHT31;58309;45.292;11.820;2023-11-21T04:26:35;7.62;95.09
67722;SHT31;58309;45.292;11.820;2023-11-21T04:29:00;7.55;95.20
67722;SHT31;58309;45.292;11.820;2023-11-21T04:31:26;7.56;96.47
67722;SHT31;58309;45.292;11.820;2023-11-21T04:33:51;7.49;95.95
67722;SHT31;58309;45.292;11.820;2023-11-21T04:36:16;7.45;95.94
67722;SHT31;58309;45.292;11.820;2023-11-21T04:38:42;7.42;96.14
67722;SHT31;58309;45.292;11.820;2023-11-21T04:41:07;7.38;96.12
67722;SHT31;58309;45.292;11.820;2023-11-21T04:43:33;7.32;96.16
67722;SHT31;58309;45.292;11.820;2023-11-21T04:45:58;7.29;96.68
67722;SHT31;58309;45.292;11.820;2023-11-21T04:48:23;7.26;96.68
67722;SHT31;58309;45.292;11.820;2023-11-21T04:50:49;7.19;96.86
67722;SHT31;58309;45.292;11.820;2023-11-21T04:53:14;7.19;96.93
67722;SHT31;58309;45.292;11.820;2023-11-21T04:55:43;7.12;97.74
67722;SHT31;58309;45.292;11.820;2023-11-21T04:58:09;7.08;97.94
67722;SHT31;58309;45.292;11.820;2023-11-21T05:00:34;7.05;98.19
67722;SHT31;58309;45.292;11.820;2023-11-21T05:03:01;7.18;98.27
67722;SHT31;58309;45.292;11.820;2023-11-21T05:05:27;7.22;98.01
67722;SHT31;58309;45.292;11.820;2023-11-21T05:07:52;7.29;97.87
67722;SHT31;58309;45.292;11.820;2023-11-21T05:10:18;7.25;97.68
67722;SHT31;58309;45.292;11.820;2023-11-21T05:12:44;7.21;97.59
67722;SHT31;58309;45.292;11.820;2023-11-21T05:15:10;7.14;97.54
67722;SHT31;58309;45.292;11.820;2023-11-21T05:17:39;7.04;97.69
67722;SHT31;58309;45.292;11.820;2023-11-21T05:20:08;6.95;97.89
67722;SHT31;58309;45.292;11.820;2023-11-21T05:22:35;6.91;98.13
67722;SHT31;58309;45.292;11.820;2023-11-21T05:25:00;6.85;98.49
67722;SHT31;58309;45.292;11.820;2023-11-21T05:27:26;6.80;98.85
67722;SHT31;58309;45.292;11.820;2023-11-21T05:29:51;6.74;98.68
67722;SHT31;58309;45.292;11.820;2023-11-21T05:32:16;6.66;98.63
67722;SHT31;58309;45.292;11.820;2023-11-21T05:34:42;6.60;98.67
67722;SHT31;58309;45.292;11.820;2023-11-21T05:37:08;6.49;98.89
67722;SHT31;58309;45.292;11.820;2023-11-21T05:39:33;6.44;99.92
67722;SHT31;58309;45.292;11.820;2023-11-21T05:41:58;6.40;99.57
67722;SHT31;58309;45.292;11.820;2023-11-21T05:44:25;6.30;99.45
67722;SHT31;58309;45.292;11.820;2023-11-21T05:46:50;6.32;99.99
67722;SHT31;58309;45.292;11.820;2023-11-21T05:49:15;6.29;99.99
67722;SHT31;58309;45.292;11.820;2023-11-21T05:51:41;6.32;99.99
67722;SHT31;58309;45.292;11.820;2023-11-21T05:54:06;6.25;99.99
67722;SHT31;58309;45.292;11.820;2023-11-21T05:56:33;6.22;99.99
67722;SHT31;58309;45.292;11.820;2023-11-21T05:58:58;6.13;99.99
67722;SHT31;58309;45.292;11.820;2023-11-21T06:01:23;6.03;99.99
67722;SHT31;58309;45.292;11.820;2023-11-21T06:03:49;5.98;99.99
67722;SHT31;58309;45.292;11.820;2023-11-21T06:06:14;5.94;99.99
67722;SHT31;58309;45.292;11.820;2023-11-21T06:08:40;5.88;99.99
67722;SHT31;58309;45.292;11.820;2023-11-21T06:11:05;5.87;99.99
67722;SHT31;58309;45.292;11.820;2023-11-21T06:13:30;5.82;99.99
67722;SHT31;58309;45.292;11.820;2023-11-21T06:15:56;5.79;99.99
67722;SHT31;58309;45.292;11.820;2023-11-21T06:18:21;5.75;99.99
67722;SHT31;58309;45.292;11.820;2023-11-21T06:20:46;5.75;99.99
67722;SHT31;58309;45.292;11.820;2023-11-21T06:23:12;5.88;99.99
67722;SHT31;58309;45.292;11.820;2023-11-21T06:25:37;5.88;99.99
67722;SHT31;58309;45.292;11.820;2023-11-21T06:28:03;5.84;99.99
67722;SHT31;58309;45.292;11.820;2023-11-21T06:30:28;5.75;99.99
67722;SHT31;58309;45.292;11.820;2023-11-21T06:32:54;5.72;99.99
67722;SHT31;58309;45.292;11.820;2023-11-21T06:35:20;5.71;99.99
67722;SHT31;58309;45.292;11.820;2023-11-21T06:37:45;5.69;99.99
67722;SHT31;58309;45.292;11.820;2023-11-21T06:40:12;5.67;99.99
67722;SHT31;58309;45.292;11.820;2023-11-21T06:42:38;5.65;99.99
67722;SHT31;58309;45.292;11.820;2023-11-21T06:45:04;5.68;99.99
67722;SHT31;58309;45.292;11.820;2023-11-21T06:47:29;5.67;99.99
67722;SHT31;58309;45.292;11.820;2023-11-21T06:49:55;5.65;99.99
67722;SHT31;58309;45.292;11.820;2023-11-21T06:52:21;5.68;99.99
67722;SHT31;58309;45.292;11.820;2023-11-21T06:54:46;5.69;99.99
67722;SHT31;58309;45.292;11.820;2023-11-21T06:57:12;5.75;99.99
67722;SHT31;58309;45.292;11.820;2023-11-21T06:59:37;5.72;99.99
67722;SHT31;58309;45.292;11.820;2023-11-21T07:02:03;5.75;99.99
67722;SHT31;58309;45.292;11.820;2023-11-21T07:04:29;5.82;99.99
67722;SHT31;58309;45.292;11.820;2023-11-21T07:06:55;5.89;99.99
67722;SHT31;58309;45.292;11.820;2023-11-21T07:09:20;6.08;99.99
67722;SHT31;58309;45.292;11.820;2023-11-21T07:11:51;6.28;99.99
67722;SHT31;58309;45.292;11.820;2023-11-21T07:14:16;6.51;99.99
67722;SHT31;58309;45.292;11.820;2023-11-21T07:16:44;6.70;99.99
67722;SHT31;58309;45.292;11.820;2023-11-21T07:19:10;6.84;99.99
67722;SHT31;58309;45.292;11.820;2023-11-21T07:21:37;6.99;99.99
67722;SHT31;58309;45.292;11.820;2023-11-21T07:24:03;7.18;99.99
67722;SHT31;58309;45.292;11.820;2023-11-21T07:26:28;7.32;99.76
67722;SHT31;58309;45.292;11.820;2023-11-21T07:28:54;7.45;99.58
67722;SHT31;58309;45.292;11.820;2023-11-21T07:31:19;7.60;99.31
67722;SHT31;58309;45.292;11.820;2023-11-21T07:33:45;7.77;99.20
67722;SHT31;58309;45.292;11.820;2023-11-21T07:36:12;7.95;99.44
67722;SHT31;58309;45.292;11.820;2023-11-21T07:38:38;8.07;97.69
67722;SHT31;58309;45.292;11.820;2023-11-21T07:41:03;8.18;97.43
67722;SHT31;58309;45.292;11.820;2023-11-21T07:43:28;8.28;96.56
67722;SHT31;58309;45.292;11.820;2023-11-21T07:46:00;8.35;96.32
67722;SHT31;58309;45.292;11.820;2023-11-21T07:48:25;8.44;95.64
67722;SHT31;58309;45.292;11.820;2023-11-21T07:50:51;8.55;95.95
67722;SHT31;58309;45.292;11.820;2023-11-21T07:53:16;8.62;95.43
67722;SHT31;58309;45.292;11.820;2023-11-21T07:55:41;8.68;95.28
67722;SHT31;58309;45.292;11.820;2023-11-21T07:58:07;8.73;95.28
67722;SHT31;58309;45.292;11.820;2023-11-21T08:00:32;8.79;94.72
67722;SHT31;58309;45.292;11.820;2023-11-21T08:02:58;8.86;94.07
67722;SHT31;58309;45.292;11.820;2023-11-21T08:05:23;8.92;93.75
67722;SHT31;58309;45.292;11.820;2023-11-21T08:07:49;8.94;93.01
67722;SHT31;58309;45.292;11.820;2023-11-21T08:10:15;8.83;93.22
67722;SHT31;58309;45.292;11.820;2023-11-21T08:12:41;8.89;94.87
67722;SHT31;58309;45.292;11.820;2023-11-21T08:15:07;8.92;94.45
67722;SHT31;58309;45.292;11.820;2023-11-21T08:17:34;8.80;94.62
67722;SHT31;58309;45.292;11.820;2023-11-21T08:20:00;8.63;95.04
67722;SHT31;58309;45.292;11.820;2023-11-21T08:22:25;8.65;95.50
67722;SHT31;58309;45.292;11.820;2023-11-21T08:24:51;8.77;95.56
67722;SHT31;58309;45.292;11.820;2023-11-21T08:27:16;8.82;95.38
67722;SHT31;58309;45.292;11.820;2023-11-21T08:29:42;8.90;95.17
67722;SHT31;58309;45.292;11.820;2023-11-21T08:32:07;9.13;95.31
67722;SHT31;58309;45.292;11.820;2023-11-21T08:34:33;9.33;94.76
67722;SHT31;58309;45.292;11.820;2023-11-21T08:36:58;9.48;93.75
67722;SHT31;58309;45.292;11.820;2023-11-21T08:39:23;9.62;92.78
67722;SHT31;58309;45.292;11.820;2023-11-21T08:41:49;9.82;92.54
67722;SHT31;58309;45.292;11.820;2023-11-21T08:44:15;9.96;91.81
67722;SHT31;58309;45.292;11.820;2023-11-21T08:46:43;10.09;91.91
67722;SHT31;58309;45.292;11.820;2023-11-21T08:49:10;10.20;91.06
67722;SHT31;58309;45.292;11.820;2023-11-21T08:51:36;10.13;91.26
67722;SHT31;58309;45.292;11.820;2023-11-21T08:54:02;10.40;91.05
67722;SHT31;58309;45.292;11.820;2023-11-21T08:56:29;10.60;89.99
67722;SHT31;58309;45.292;11.820;2023-11-21T08:58:55;10.88;88.37
67722;SHT31;58309;45.292;11.820;2023-11-21T09:01:20;10.95;87.61
67722;SHT31;58309;45.292;11.820;2023-11-21T09:03:46;10.95;87.88
67722;SHT31;58309;45.292;11.820;2023-11-21T09:06:12;11.00;86.83
67722;SHT31;58309;45.292;11.820;2023-11-21T09:08:38;11.10;87.05
67722;SHT31;58309;45.292;11.820;2023-11-21T09:11:03;11.15;87.20
67722;SHT31;58309;45.292;11.820;2023-11-21T09:13:28;11.15;86.31
67722;SHT31;58309;45.292;11.820;2023-11-21T09:15:54;11.32;86.09
67722;SHT31;58309;45.292;11.820;2023-11-21T09:18:20;11.53;86.23
67722;SHT31;58309;45.292;11.820;2023-11-21T09:20:45;11.67;85.69
67722;SHT31;58309;45.292;11.820;2023-11-21T09:23:11;11.80;84.79
67722;SHT31;58309;45.292;11.820;2023-11-21T09:25:36;11.86;84.51
67722;SHT31;58309;45.292;11.820;2023-11-21T09:28:03;11.72;84.95
67722;SHT31;58309;45.292;11.820;2023-11-21T09:30:33;11.69;85.97
67722;SHT31;58309;45.292;11.820;2023-11-21T09:32:58;11.46;86.30
67722;SHT31;58309;45.292;11.820;2023-11-21T09:35:23;11.26;86.35
67722;SHT31;58309;45.292;11.820;2023-11-21T09:37:49;11.08;87.84
67722;SHT31;58309;45.292;11.820;2023-11-21T09:40:15;10.97;88.03
67722;SHT31;58309;45.292;11.820;2023-11-21T09:42:49;11.05;88.54
67722;SHT31;58309;45.292;11.820;2023-11-21T09:47:40;11.07;88.81
67722;SHT31;58309;45.292;11.820;2023-11-21T09:50:07;11.10;88.80
67722;SHT31;58309;45.292;11.820;2023-11-21T09:52:46;10.98;89.03
67722;SHT31;58309;45.292;11.820;2023-11-21T09:55:14;11.05;89.70
67722;SHT31;58309;45.292;11.820;2023-11-21T09:57:41;11.05;89.39
67722;SHT31;58309;45.292;11.820;2023-11-21T10:00:07;11.01;89.76
67722;SHT31;58309;45.292;11.820;2023-11-21T10:02:36;11.01;89.63
67722;SHT31;58309;45.292;11.820;2023-11-21T10:05:03;11.15;89.39
67722;SHT31;58309;45.292;11.820;2023-11-21T10:07:29;11.33;89.17
67722;SHT31;58309;45.292;11.820;2023-11-21T10:09:55;11.55;88.80
67722;SHT31;58309;45.292;11.820;2023-11-21T10:12:21;11.63;88.70
67722;SHT31;58309;45.292;11.820;2023-11-21T10:14:49;11.67;88.52
67722;SHT31;58309;45.292;11.820;2023-11-21T10:17:17;11.89;87.84
67722;SHT31;58309;45.292;11.820;2023-11-21T10:19:43;11.97;88.16
67722;SHT31;58309;45.292;11.820;2023-11-21T10:22:11;11.93;87.66
67722;SHT31;58309;45.292;11.820;2023-11-21T10:24:37;11.80;87.59
67722;SHT31;58309;45.292;11.820;2023-11-21T10:27:03;11.70;87.85
67722;SHT31;58309;45.292;11.820;2023-11-21T10:29:29;11.66;87.43
67722;SHT31;58309;45.292;11.820;2023-11-21T10:31:55;11.58;87.10
67722;SHT31;58309;45.292;11.820;2023-11-21T10:34:23;11.52;87.06
67722;SHT31;58309;45.292;11.820;2023-11-21T10:36:48;11.56;86.61
67722;SHT31;58309;45.292;11.820;2023-11-21T10:39:16;11.56;87.06
67722;SHT31;58309;45.292;11.820;2023-11-21T10:41:43;11.63;86.50
67722;SHT31;58309;45.292;11.820;2023-11-21T10:44:08;11.74;86.68
67722;SHT31;58309;45.292;11.820;2023-11-21T10:46:36;11.76;85.84
67722;SHT31;58309;45.292;11.820;2023-11-21T10:49:01;11.87;85.36
67722;SHT31;58309;45.292;11.820;2023-11-21T10:51:27;12.00;85.82
67722;SHT31;58309;45.292;11.820;2023-11-21T10:53:53;12.07;86.26
67722;SHT31;58309;45.292;11.820;2023-11-21T10:56:19;12.18;86.34
67722;SHT31;58309;45.292;11.820;2023-11-21T10:58:47;12.24;85.47
67722;SHT31;58309;45.292;11.820;2023-11-21T11:01:13;12.48;84.72
67722;SHT31;58309;45.292;11.820;2023-11-21T11:03:43;12.63;83.32
67722;SHT31;58309;45.292;11.820;2023-11-21T11:06:09;12.79;82.91
67722;SHT31;58309;45.292;11.820;2023-11-21T11:08:40;12.75;81.51
67722;SHT31;58309;45.292;11.820;2023-11-21T11:11:10;12.89;81.48
67722;SHT31;58309;45.292;11.820;2023-11-21T11:13:39;12.95;81.07
67722;SHT31;58309;45.292;11.820;2023-11-21T11:16:08;13.02;80.24
67722;SHT31;58309;45.292;11.820;2023-11-21T11:18:35;12.95;80.06
67722;SHT31;58309;45.292;11.820;2023-11-21T11:28:51;13.19;79.60
67722;SHT31;58309;45.292;11.820;2023-11-21T11:34:08;13.09;80.65
67722;SHT31;58309;45.292;11.820;2023-11-21T11:36:51;12.99;81.06
67722;SHT31;58309;45.292;11.820;2023-11-21T11:39:29;12.82;81.65
67722;SHT31;58309;45.292;11.820;2023-11-21T11:41:56;12.75;82.40
67722;SHT31;58309;45.292;11.820;2023-11-21T11:47:30;12.61;82.58
67722;SHT31;58309;45.292;11.820;2023-11-21T11:50:02;12.51;82.59
67722;SHT31;58309;45.292;11.820;2023-11-21T11:55:15;12.31;83.20
67722;SHT31;58309;45.292;11.820;2023-11-21T11:57:49;12.23;83.45
67722;SHT31;58309;45.292;11.820;2023-11-21T12:00:20;12.23;84.09
67722;SHT31;58309;45.292;11.820;2023-11-21T12:02:49;12.20;83.86
67722;SHT31;58309;45.292;11.820;2023-11-21T12:05:19;12.24;84.25
67722;SHT31;58309;45.292;11.820;2023-11-21T12:07:49;12.27;83.89
67722;SHT31;58309;45.292;11.820;2023-11-21T12:10:15;12.24;84.19
67722;SHT31;58309;45.292;11.820;2023-11-21T12:12:43;12.24;84.71
67722;SHT31;58309;45.292;11.820;2023-11-21T12:15:15;12.17;83.93
67722;SHT31;58309;45.292;11.820;2023-11-21T12:17:44;12.10;84.31
67722;SHT31;58309;45.292;11.820;2023-11-21T12:23:16;11.93;85.53
67722;SHT31;58309;45.292;11.820;2023-11-21T12:25:48;11.86;84.73
67722;SHT31;58309;45.292;11.820;2023-11-21T12:28:16;11.74;86.33
67722;SHT31;58309;45.292;11.820;2023-11-21T12:30:42;11.67;86.45
67722;SHT31;58309;45.292;11.820;2023-11-21T12:33:08;11.69;87.30
67722;SHT31;58309;45.292;11.820;2023-11-21T12:35:34;11.77;86.84
67722;SHT31;58309;45.292;11.820;2023-11-21T12:38:00;11.80;87.01
67722;SHT31;58309;45.292;11.820;2023-11-21T12:40:27;11.87;87.28
67722;SHT31;58309;45.292;11.820;2023-11-21T12:42:54;11.94;87.38
67722;SHT31;58309;45.292;11.820;2023-11-21T12:45:23;11.94;87.83
67722;SHT31;58309;45.292;11.820;2023-11-21T12:47:51;12.05;88.82
67722;SHT31;58309;45.292;11.820;2023-11-21T12:50:22;12.00;89.21
67722;SHT31;58309;45.292;11.820;2023-11-21T12:52:49;12.03;89.52
67722;SHT31;58309;45.292;11.820;2023-11-21T12:55:18;12.07;88.97
67722;SHT31;58309;45.292;11.820;2023-11-21T12:57:53;12.08;89.76
67722;SHT31;58309;45.292;11.820;2023-11-21T13:00:32;12.17;89.57
67722;SHT31;58309;45.292;11.820;2023-11-21T13:03:02;12.38;89.24
67722;SHT31;58309;45.292;11.820;2023-11-21T13:05:29;12.42;88.82
67722;SHT31;58309;45.292;11.820;2023-11-21T13:08:00;12.38;86.68
67722;SHT31;58309;45.292;11.820;2023-11-21T13:10:28;12.37;88.41
67722;SHT31;58309;45.292;11.820;2023-11-21T13:13:00;12.40;87.76
67722;SHT31;58309;45.292;11.820;2023-11-21T13:15:28;12.40;88.74
67722;SHT31;58309;45.292;11.820;2023-11-21T13:17:56;12.37;88.19
67722;SHT31;58309;45.292;11.820;2023-11-21T13:20:23;12.32;87.70
67722;SHT31;58309;45.292;11.820;2023-11-21T13:22:58;12.30;87.62
67722;SHT31;58309;45.292;11.820;2023-11-21T13:25:26;12.24;88.04
67722;SHT31;58309;45.292;11.820;2023-11-21T13:27:55;12.23;89.13
67722;SHT31;58309;45.292;11.820;2023-11-21T13:30:21;12.21;89.09
67722;SHT31;58309;45.292;11.820;2023-11-21T13:33:12;12.23;89.28
67722;SHT31;58309;45.292;11.820;2023-11-21T13:35:47;12.25;89.37
67722;SHT31;58309;45.292;11.820;2023-11-21T13:38:14;12.28;89.83
67722;SHT31;58309;45.292;11.820;2023-11-21T13:40:42;12.31;89.95
67722;SHT31;58309;45.292;11.820;2023-11-21T13:43:13;12.34;89.26
67722;SHT31;58309;45.292;11.820;2023-11-21T13:45:39;12.37;88.82
67722;SHT31;58309;45.292;11.820;2023-11-21T13:48:05;12.44;89.74
67722;SHT31;58309;45.292;11.820;2023-11-21T13:50:35;12.49;89.20
67722;SHT31;58309;45.292;11.820;2023-11-21T13:53:01;12.61;89.24
67722;SHT31;58309;45.292;11.820;2023-11-21T13:55:44;12.71;89.17
67722;SHT31;58309;45.292;11.820;2023-11-21T13:58:12;12.73;88.51
67722;SHT31;58309;45.292;11.820;2023-11-21T14:00:43;12.76;86.67
67722;SHT31;58309;45.292;11.820;2023-11-21T14:03:13;12.83;84.42
67722;SHT31;58309;45.292;11.820;2023-11-21T14:05:50;12.88;83.20
67722;SHT31;58309;45.292;11.820;2023-11-21T14:08:21;12.91;84.02
67722;SHT31;58309;45.292;11.820;2023-11-21T14:10:48;12.95;84.49
67722;SHT31;58309;45.292;11.820;2023-11-21T14:13:20;12.93;83.29
67722;SHT31;58309;45.292;11.820;2023-11-21T14:15:48;12.95;83.47
67722;SHT31;58309;45.292;11.820;2023-11-21T14:18:16;12.97;80.99
67722;SHT31;58309;45.292;11.820;2023-11-21T14:20:42;12.96;82.08
67722;SHT31;58309;45.292;11.820;2023-11-21T14:23:08;12.99;81.82
67722;SHT31;58309;45.292;11.820;2023-11-21T14:25:34;13.07;80.95
67722;SHT31;58309;45.292;11.820;2023-11-21T14:27:59;13.10;80.86
67722;SHT31;58309;45.292;11.820;2023-11-21T14:30:25;13.06;80.51
67722;SHT31;58309;45.292;11.820;2023-11-21T14:32:51;12.99;81.29
67722;SHT31;58309;45.292;11.820;2023-11-21T14:35:16;12.93;81.40
67722;SHT31;58309;45.292;11.820;2023-11-21T14:37:42;12.89;81.01
67722;SHT31;58309;45.292;11.820;2023-11-21T14:40:08;12.82;81.59
67722;SHT31;58309;45.292;11.820;2023-11-21T14:42:34;12.83;80.81
67722;SHT31;58309;45.292;11.820;2023-11-21T14:45:03;12.78;81.70
67722;SHT31;58309;45.292;11.820;2023-11-21T14:47:32;12.71;82.19
67722;SHT31;58309;45.292;11.820;2023-11-21T14:49:57;12.62;81.74
67722;SHT31;58309;45.292;11.820;2023-11-21T14:52:25;12.61;81.79
67722;SHT31;58309;45.292;11.820;2023-11-21T14:55:05;12.51;82.46
67722;SHT31;58309;45.292;11.820;2023-11-21T14:57:52;12.42;83.06
67722;SHT31;58309;45.292;11.820;2023-11-21T15:00:20;12.38;82.80
67722;SHT31;58309;45.292;11.820;2023-11-21T15:03:01;12.40;82.83
67722;SHT31;58309;45.292;11.820;2023-11-21T15:05:26;12.32;83.10
67722;SHT31;58309;45.292;11.820;2023-11-21T15:07:53;12.27;83.31
67722;SHT31;58309;45.292;11.820;2023-11-21T15:10:21;12.25;83.48
67722;SHT31;58309;45.292;11.820;2023-11-21T15:12:54;12.31;82.80
67722;SHT31;58309;45.292;11.820;2023-11-21T15:15:19;12.35;82.75
67722;SHT31;58309;45.292;11.820;2023-11-21T15:17:46;12.34;83.44
67722;SHT31;58309;45.292;11.820;2023-11-21T15:20:12;12.37;83.13
67722;SHT31;58309;45.292;11.820;2023-11-21T15:22:44;12.54;81.69
67722;SHT31;58309;45.292;11.820;2023-11-21T15:25:09;12.51;82.27
67722;SHT31;58309;45.292;11.820;2023-11-21T15:27:35;12.55;82.30
67722;SHT31;58309;45.292;11.820;2023-11-21T15:30:01;12.52;82.68
67722;SHT31;58309;45.292;11.820;2023-11-21T15:32:28;12.54;82.40
67722;SHT31;58309;45.292;11.820;2023-11-21T15:34:56;12.54;82.56
67722;SHT31;58309;45.292;11.820;2023-11-21T15:37:22;12.56;82.16
67722;SHT31;58309;45.292;11.820;2023-11-21T15:39:47;12.55;82.20
67722;SHT31;58309;45.292;11.820;2023-11-21T15:42:12;12.55;82.29
67722;SHT31;58309;45.292;11.820;2023-11-21T15:44:38;12.55;82.21